Time;durP1;ratioP1;P1;durP2;ratioP2;P2;SDS_P1;SDS_P2;PMS_P1;PMS_P2;Temp;Humidity;BMP_temperature;BMP_pressure;BME280_temperature;BME280_humidity;BME280_pressure;Samples;Min_cycle;Max_cycle;Signal;HPM_P1;HPM_P2
2022/08/16 00:01:25;;;;;;;24.90;14.70;;;;;;;18.92;86.45;100651.50;5088334;28;20496;-73
2022/08/16 00:03:52;;;;;;;21.40;15.02;;;;;;;18.92;85.04;100656.22;5107983;28;20069;-71
2022/08/16 00:06:17;;;;;;;18.52;14.75;;;;;;;18.91;85.84;100654.53;5107609;28;20024;-71
2022/08/16 00:08:42;;;;;;;19.50;14.97;;;;;;;18.96;87.05;100662.94;5107724;28;20043;-72
2022/08/16 00:11:10;;;;;;;23.00;15.73;;;;;;;18.97;85.85;100659.06;5085171;28;20039;-72
2022/08/16 00:13:36;;;;;;;23.70;15.10;;;;;;;18.89;84.98;100665.06;5072356;28;20066;-71
2022/08/16 00:16:02;;;;;;;24.57;15.47;;;;;;;18.91;85.75;100669.28;5106943;28;20452;-72
2022/08/16 00:18:28;;;;;;;17.05;14.18;;;;;;;18.91;84.77;100671.19;5106166;28;20028;-73
2022/08/16 00:20:53;;;;;;;16.70;14.93;;;;;;;18.86;85.53;100666.41;5103604;28;20795;-72
2022/08/16 00:23:19;;;;;;;20.50;14.37;;;;;;;18.85;85.88;100663.91;5093326;28;20443;-71
2022/08/16 00:25:44;;;;;;;17.33;14.30;;;;;;;18.81;85.17;100671.91;5110820;28;20035;-72
2022/08/16 00:28:10;;;;;;;16.60;12.70;;;;;;;18.71;85.06;100674.50;5111046;28;20291;-73
2022/08/16 00:30:35;;;;;;;19.37;13.47;;;;;;;18.74;85.59;100676.75;5091543;28;20031;-71
2022/08/16 00:33:02;;;;;;;18.33;12.67;;;;;;;18.76;85.79;100673.75;5110318;28;20084;-71
2022/08/16 00:35:35;;;;;;;21.58;13.50;;;;;;;18.74;85.49;100678.72;5109984;28;20037;-72
2022/08/16 00:38:02;;;;;;;18.40;12.60;;;;;;;18.73;85.35;100677.03;5111130;28;20023;-72
2022/08/16 00:40:43;;;;;;;19.90;13.10;;;;;;;18.71;85.65;100682.84;5111800;28;20501;-72
2022/08/16 00:43:17;;;;;;;18.10;13.82;;;;;;;18.77;87.11;100687.38;5107100;28;20043;-72
2022/08/16 00:46:18;;;;;;;20.00;13.38;;;;;;;18.74;85.79;100681.50;5111791;28;20042;-72
2022/08/16 00:48:44;;;;;;;21.23;13.85;;;;;;;18.76;85.41;100684.84;5047140;28;20096;-72
2022/08/16 00:51:12;;;;;;;16.30;13.17;;;;;;;18.76;85.12;100679.28;5111040;28;20397;-73
2022/08/16 00:53:38;;;;;;;14.43;12.25;;;;;;;18.80;85.61;100686.03;5112289;28;20035;-72
2022/08/16 00:56:10;;;;;;;19.10;13.00;;;;;;;18.84;85.05;100687.19;5090166;28;20035;-72
2022/08/16 00:58:39;;;;;;;22.75;13.30;;;;;;;18.85;85.61;100678.63;5111493;28;20034;-73
2022/08/16 01:01:06;;;;;;;18.95;13.68;;;;;;;18.83;85.93;100683.56;5110738;28;20111;-75
2022/08/16 01:03:31;;;;;;;18.40;12.85;;;;;;;18.87;85.30;100683.91;5092308;28;20100;-76
2022/08/16 01:05:57;;;;;;;17.90;13.20;;;;;;;18.87;85.99;100683.91;5109046;28;20031;-75
2022/08/16 01:08:25;;;;;;;17.77;13.63;;;;;;;18.81;85.37;100687.69;5110107;28;20083;-76
2022/08/16 01:10:51;;;;;;;14.93;13.07;;;;;;;18.79;85.48;100678.78;5091405;28;20027;-75
2022/08/16 01:13:24;;;;;;;20.00;12.80;;;;;;;18.71;85.71;100688.41;5109898;28;20023;-75
2022/08/16 01:15:54;;;;;;;17.88;12.90;;;;;;;18.71;86.17;100688.41;5088463;28;20151;-74
2022/08/16 01:18:23;;;;;;;18.38;13.23;;;;;;;18.67;85.45;100680.84;5088660;28;20092;-75
2022/08/16 01:21:03;;;;;;;16.73;12.77;;;;;;;18.70;85.59;100672.84;5109777;28;20050;-76
2022/08/16 01:23:43;;;;;;;15.90;13.10;;;;;;;18.72;85.66;100681.75;5109159;28;20044;-76
2022/08/16 01:26:09;;;;;;;25.98;13.18;;;;;;;18.69;85.89;100682.28;5108485;28;20020;-76
2022/08/16 01:28:34;;;;;;;18.90;13.53;;;;;;;18.68;85.77;100679.75;5110248;28;20039;-75
2022/08/16 01:31:01;;;;;;;18.47;13.97;;;;;;;18.72;85.67;100680.91;5109808;28;20110;-76
2022/08/16 01:33:26;;;;;;;19.17;14.32;;;;;;;18.75;85.86;100677.63;5108491;28;20092;-76
2022/08/16 01:35:51;;;;;;;20.03;14.17;;;;;;;18.72;85.92;100675.38;5109680;28;20032;-76
2022/08/16 01:38:21;;;;;;;18.57;14.33;;;;;;;18.66;85.34;100682.75;5109408;28;20024;-75
2022/08/16 01:40:49;;;;;;;17.15;14.50;;;;;;;18.65;86.88;100681.09;5109693;28;20020;-75
2022/08/16 01:43:15;;;;;;;20.02;14.77;;;;;;;18.65;86.31;100680.22;5108738;28;20023;-76
2022/08/16 01:45:43;;;;;;;23.00;14.90;;;;;;;18.69;86.54;100687.81;5109670;28;20080;-75
2022/08/16 01:48:09;;;;;;;26.20;15.30;;;;;;;18.71;86.76;100684.75;5109206;28;20035;-77
2022/08/16 01:50:37;;;;;;;19.20;16.00;;;;;;;18.78;86.25;100686.28;5109457;28;20039;-75
2022/08/16 01:53:03;;;;;;;22.55;16.27;;;;;;;18.77;86.15;100673.50;5109729;28;20031;-76
2022/08/16 01:55:28;;;;;;;21.63;17.10;;;;;;;18.79;85.80;100678.78;5109241;28;20026;-75
2022/08/16 01:57:54;;;;;;;28.13;16.93;;;;;;;18.72;85.68;100689.25;5110936;28;20276;-75
2022/08/16 02:00:21;;;;;;;22.70;17.33;;;;;;;18.79;85.84;100673.25;5109668;28;20035;-74
2022/08/16 02:02:46;;;;;;;23.42;17.42;;;;;;;18.75;86.02;100672.91;5111072;28;20036;-74
2022/08/16 02:05:12;;;;;;;33.93;18.97;;;;;;;18.73;86.30;100663.16;5108934;28;20406;-74
2022/08/16 02:07:38;;;;;;;20.35;17.40;;;;;;;18.70;86.27;100667.28;5091835;28;20600;-75
2022/08/16 02:10:06;;;;;;;26.27;17.42;;;;;;;18.63;85.66;100663.84;5110197;28;20112;-75
2022/08/16 02:12:33;;;;;;;22.40;18.27;;;;;;;18.63;86.08;100671.34;5091520;28;20456;-74
2022/08/16 02:14:58;;;;;;;31.50;19.65;;;;;;;18.58;85.36;100665.69;5106864;28;20057;-75
2022/08/16 02:17:26;;;;;;;24.67;18.90;;;;;;;18.54;86.09;100670.06;5110563;28;20035;-75
2022/08/16 02:19:52;;;;;;;31.33;20.08;;;;;;;18.59;86.17;100667.38;5090153;28;20136;-74
2022/08/16 02:22:19;;;;;;;;;;;;;;;18.64;86.58;100667.47;5091217;28;20027;-76
2022/08/16 02:24:45;;;;;;;23.48;19.23;;;;;;;18.62;86.76;100666.88;5090085;28;19920;-74
2022/08/16 02:27:11;;;;;;;34.53;22.70;;;;;;;18.79;85.66;100667.69;5108679;28;20035;-76
2022/08/16 02:29:37;;;;;;;26.52;20.30;;;;;;;18.80;84.77;100666.59;5109045;28;20028;-76
2022/08/16 02:32:03;;;;;;;28.00;21.05;;;;;;;18.89;85.17;100657.56;5091087;28;20062;-76
2022/08/16 02:34:29;;;;;;;25.33;19.80;;;;;;;18.84;84.62;100660.25;5107950;28;20047;-76
2022/08/16 02:36:54;;;;;;;24.77;19.65;;;;;;;18.78;84.86;100661.28;5110591;28;20410;-74
2022/08/16 02:39:20;;;;;;;26.90;20.60;;;;;;;18.82;85.17;100669.94;5110508;28;20492;-76
2022/08/16 02:41:48;;;;;;;29.27;20.60;;;;;;;18.85;85.22;100658.34;5091234;28;20046;-75
2022/08/16 02:44:13;;;;;;;29.90;22.08;;;;;;;18.85;85.39;100670.31;5108179;28;20055;-75
2022/08/16 02:46:42;;;;;;;31.23;20.17;;;;;;;18.77;85.23;100658.75;5109417;28;20122;-75
2022/08/16 02:49:09;;;;;;;27.92;19.65;;;;;;;18.74;85.28;100665.66;5108824;28;20035;-75
2022/08/16 02:51:35;;;;;;;29.13;21.40;;;;;;;18.68;86.09;100652.81;5108572;28;20446;-75
2022/08/16 02:54:01;;;;;;;32.08;21.75;;;;;;;18.70;85.84;100655.34;5109598;28;20489;-75
2022/08/16 02:56:28;;;;;;;28.67;22.47;;;;;;;18.77;85.97;100653.22;5109354;28;20032;-74
2022/08/16 02:58:54;;;;;;;31.42;23.05;;;;;;;18.80;85.27;100650.78;5089813;28;20031;-75
2022/08/16 03:01:23;;;;;;;36.43;23.57;;;;;;;18.78;85.58;100661.28;5108946;28;20635;-76
2022/08/16 03:03:49;;;;;;;30.80;23.08;;;;;;;18.80;85.56;100655.50;5109460;28;20115;-74
2022/08/16 03:06:18;;;;;;;33.13;24.30;;;;;;;18.73;85.56;100650.13;5105197;28;20031;-75
2022/08/16 03:08:44;;;;;;;32.55;25.05;;;;;;;18.67;85.95;100655.88;5091277;28;20045;-75
2022/08/16 03:11:11;;;;;;;38.10;23.75;;;;;;;18.65;85.33;100653.34;5109372;28;20023;-76
2022/08/16 03:13:37;;;;;;;35.85;24.60;;;;;;;18.71;85.27;100651.47;5109511;28;20051;-76
2022/08/16 03:16:03;;;;;;;40.27;26.30;;;;;;;18.62;85.94;100658.56;5109612;28;20032;-75
2022/08/16 03:18:28;;;;;;;38.85;24.30;;;;;;;18.57;85.87;100661.25;5089021;28;20030;-74
2022/08/16 03:20:55;;;;;;;32.67;24.43;;;;;;;18.55;85.73;100655.09;5105780;28;20499;-74
2022/08/16 03:23:20;;;;;;;46.50;26.67;;;;;;;18.58;85.81;100663.75;5109759;28;20040;-76
2022/08/16 03:25:46;;;;;;;38.90;25.17;;;;;;;18.53;85.84;100663.69;5107887;28;20061;-76
2022/08/16 03:28:11;;;;;;;31.03;24.17;;;;;;;18.63;85.40;100657.47;5109556;28;20036;-76
2022/08/16 03:30:37;;;;;;;43.53;28.20;;;;;;;18.59;85.84;100656.28;5108612;28;20436;-76
2022/08/16 03:33:04;;;;;;;38.67;27.07;;;;;;;18.51;85.44;100645.63;5109610;28;20042;-76
2022/08/16 03:35:30;;;;;;;;;;;;;;;18.45;86.31;100655.78;5108407;28;20027;-76
2022/08/16 03:37:59;;;;;;;33.03;24.25;;;;;;;18.37;86.17;100664.56;5108287;28;19964;-75
2022/08/16 03:40:26;;;;;;;33.72;24.58;;;;;;;18.30;86.09;100660.22;5105715;28;20058;-75
2022/08/16 03:42:52;;;;;;;36.72;26.23;;;;;;;18.31;86.51;100670.22;5109530;28;20024;-75
2022/08/16 03:45:17;;;;;;;36.80;25.13;;;;;;;18.30;86.74;100671.31;5108412;28;20394;-76
2022/08/16 03:47:46;;;;;;;35.67;25.10;;;;;;;18.25;86.13;100663.75;5109913;28;20031;-75
2022/08/16 03:50:13;;;;;;;41.75;25.85;;;;;;;18.21;86.50;100661.72;5108364;28;20039;-76
2022/08/16 03:52:39;;;;;;;41.97;25.67;;;;;;;18.27;86.77;100674.59;5108785;28;20434;-76
2022/08/16 03:55:05;;;;;;;37.60;24.58;;;;;;;18.20;86.41;100671.16;5108862;28;20062;-76
2022/08/16 03:57:30;;;;;;;35.72;24.35;;;;;;;18.17;87.37;100674.41;5093331;28;20163;-75
2022/08/16 03:59:56;;;;;;;40.93;26.57;;;;;;;18.24;87.01;100684.25;5093096;28;20036;-75
2022/08/16 04:02:22;;;;;;;36.23;26.97;;;;;;;18.19;86.61;100681.38;5111229;28;20055;-76
2022/08/16 04:04:49;;;;;;;37.15;25.48;;;;;;;18.19;87.11;100688.88;5111094;28;20047;-77
2022/08/16 04:07:15;;;;;;;39.17;27.17;;;;;;;18.08;86.97;100684.25;5096869;28;20058;-74
2022/08/16 04:09:41;;;;;;;38.80;26.67;;;;;;;18.16;86.91;100683.81;5111369;28;20462;-76
2022/08/16 04:12:08;;;;;;;38.20;26.15;;;;;;;18.07;87.55;100685.31;5105649;28;20394;-76
2022/08/16 04:14:33;;;;;;;39.42;24.52;;;;;;;18.13;87.04;100692.63;5109144;28;20063;-76
2022/08/16 04:16:59;;;;;;;36.50;26.20;;;;;;;18.12;87.16;100693.72;5104890;28;20047;-75
2022/08/16 04:19:26;;;;;;;39.03;26.25;;;;;;;18.08;87.17;100692.56;5106259;28;20028;-75
2022/08/16 04:21:52;;;;;;;35.95;25.30;;;;;;;18.00;86.86;100695.72;5108826;28;20028;-76
2022/08/16 04:24:17;;;;;;;35.13;26.13;;;;;;;18.05;87.41;100698.59;5108273;28;20047;-76
2022/08/16 04:26:43;;;;;;;45.00;26.50;;;;;;;18.02;87.51;100701.84;5109937;28;20107;-76
2022/08/16 04:29:08;;;;;;;36.70;26.60;;;;;;;17.93;87.04;100703.38;5110019;28;20023;-77
2022/08/16 04:31:34;;;;;;;33.23;26.33;;;;;;;18.04;86.32;100702.47;5110505;28;20043;-77
2022/08/16 04:33:59;;;;;;;40.23;26.90;;;;;;;18.04;86.94;100702.47;5091540;28;20030;-75
2022/08/16 04:36:26;;;;;;;38.27;26.97;;;;;;;18.16;86.22;100704.09;5109913;28;20031;-75
2022/08/16 04:38:52;;;;;;;40.30;28.02;;;;;;;18.11;86.09;100715.09;5106531;28;20433;-75
2022/08/16 04:41:17;;;;;;;36.58;27.45;;;;;;;18.24;85.64;100711.97;5108843;28;20053;-76
2022/08/16 04:43:43;;;;;;;40.47;28.50;;;;;;;18.34;85.27;100719.66;5109819;28;20043;-75
2022/08/16 04:46:08;;;;;;;35.97;27.98;;;;;;;18.28;85.82;100712.31;5092215;28;20069;-77
2022/08/16 04:48:34;;;;;;;42.10;27.80;;;;;;;18.26;85.58;100711.72;5110510;28;20089;-75
2022/08/16 04:51:00;;;;;;;38.57;26.67;;;;;;;18.33;85.49;100720.75;5109963;28;20102;-75
2022/08/16 04:53:27;;;;;;;35.80;26.43;;;;;;;18.32;85.40;100714.38;5094524;28;20042;-77
2022/08/16 04:55:52;;;;;;;41.13;26.77;;;;;;;18.45;85.20;100725.13;5112087;28;20080;-74
2022/08/16 04:58:19;;;;;;;40.13;26.70;;;;;;;18.34;85.42;100714.09;5110823;28;20395;-76
2022/08/16 05:00:44;;;;;;;37.83;27.42;;;;;;;18.33;85.38;100706.88;5105783;28;20023;-75
2022/08/16 05:03:11;;;;;;;38.80;28.90;;;;;;;18.31;85.73;100711.81;5108147;28;20043;-76
2022/08/16 05:05:40;;;;;;;40.15;28.55;;;;;;;18.29;85.69;100709.28;5109381;28;20031;-77
2022/08/16 05:08:07;;;;;;;42.45;27.58;;;;;;;18.26;85.93;100708.97;5107815;28;20428;-76
2022/08/16 05:10:32;;;;;;;42.80;28.63;;;;;;;18.29;85.64;100705.66;5111495;28;20060;-76
2022/08/16 05:12:59;;;;;;;36.53;27.27;;;;;;;18.31;85.61;100707.09;5110483;28;20119;-75
2022/08/16 05:15:25;;;;;;;38.08;27.17;;;;;;;18.32;85.34;100696.88;5109834;28;20024;-76
2022/08/16 05:17:51;;;;;;;40.83;26.17;;;;;;;18.36;85.07;100711.94;5093400;28;20024;-74
2022/08/16 05:20:17;;;;;;;35.50;27.20;;;;;;;18.41;85.60;100717.59;5110755;28;20307;-78
2022/08/16 05:22:42;;;;;;;39.20;29.17;;;;;;;18.50;85.15;100729.91;5111377;28;20108;-77
2022/08/16 05:25:10;;;;;;;39.37;27.37;;;;;;;18.47;85.36;100733.22;5093434;28;20030;-77
2022/08/16 05:27:36;;;;;;;39.20;27.17;;;;;;;18.55;85.30;100741.09;5110301;28;20097;-76
2022/08/16 05:30:03;;;;;;;35.30;27.23;;;;;;;18.62;84.60;100734.31;5092805;28;20081;-76
2022/08/16 05:32:28;;;;;;;41.42;28.77;;;;;;;18.67;84.79;100728.00;5092969;28;20047;-76
2022/08/16 05:34:54;;;;;;;37.03;28.03;;;;;;;18.81;84.69;100738.50;5110012;28;21757;-75
2022/08/16 05:37:22;;;;;;;44.43;29.97;;;;;;;18.90;84.19;100742.53;5107858;28;20200;-77
2022/08/16 05:39:47;;;;;;;39.33;28.98;;;;;;;18.83;84.73;100749.38;5108507;28;20023;-76
2022/08/16 05:42:13;;;;;;;44.27;30.37;;;;;;;18.91;84.36;100754.47;5091879;28;20046;-75
2022/08/16 05:44:38;;;;;;;36.60;29.27;;;;;;;19.06;83.88;100757.50;5092676;28;20039;-76
2022/08/16 05:47:04;;;;;;;42.13;28.97;;;;;;;19.04;83.85;100745.81;5109697;28;20151;-76
2022/08/16 05:49:30;;;;;;;37.03;28.97;;;;;;;19.17;83.46;100742.66;5109289;28;20428;-75
2022/08/16 05:51:55;;;;;;;47.80;32.38;;;;;;;19.23;83.14;100742.53;5110271;28;20024;-75
2022/08/16 05:54:21;;;;;;;41.40;30.40;;;;;;;19.31;83.19;100752.34;5110831;28;20046;-76
2022/08/16 05:56:47;;;;;;;44.63;30.25;;;;;;;19.36;83.31;100757.97;5108235;28;20038;-76
2022/08/16 05:59:14;;;;;;;35.90;27.90;;;;;;;19.43;82.83;100758.63;5109295;28;20040;-76
2022/08/16 06:01:42;;;;;;;43.92;29.38;;;;;;;19.44;82.99;100766.72;5112421;28;20031;-77
2022/08/16 06:04:08;;;;;;;42.33;29.73;;;;;;;19.48;82.74;100761.47;5110813;28;20028;-76
2022/08/16 06:06:34;;;;;;;42.08;29.42;;;;;;;19.56;82.24;100767.44;5111010;28;20391;-76
2022/08/16 06:08:59;;;;;;;45.03;30.47;;;;;;;19.62;81.92;100758.06;5110144;28;20035;-76
2022/08/16 06:11:24;;;;;;;41.87;30.43;;;;;;;19.58;82.27;100753.28;5091440;28;20453;-76
2022/08/16 06:13:50;;;;;;;43.93;30.73;;;;;;;19.64;81.85;100768.91;5107511;28;20053;-75
2022/08/16 06:16:15;;;;;;;42.67;29.73;;;;;;;19.73;82.06;100762.63;5090938;28;20104;-75
2022/08/16 06:18:43;;;;;;;43.57;30.53;;;;;;;19.79;81.60;100755.22;5109730;28;20394;-75
2022/08/16 06:21:09;;;;;;;41.03;31.25;;;;;;;19.91;81.48;100764.25;5090896;28;20031;-75
2022/08/16 06:23:34;;;;;;;42.80;30.73;;;;;;;19.96;81.51;100770.69;5109217;28;20034;-75
2022/08/16 06:26:00;;;;;;;42.73;29.07;;;;;;;20.03;81.26;100771.34;5109432;28;20057;-76
2022/08/16 06:28:25;;;;;;;39.63;28.93;;;;;;;20.06;80.94;100770.81;5086402;28;20110;-76
2022/08/16 06:30:50;;;;;;;47.20;29.03;;;;;;;20.14;80.86;100766.75;5088681;28;20032;-76
2022/08/16 06:33:17;;;;;;;48.57;30.87;;;;;;;20.27;79.89;100766.38;5085632;28;20123;-76
2022/08/16 06:35:42;;;;;;;40.92;29.08;;;;;;;20.32;80.01;100767.25;5073888;28;20084;-76
2022/08/16 06:38:08;;;;;;;37.67;28.73;;;;;;;20.57;79.02;100770.28;5076146;28;20039;-76
2022/08/16 06:40:34;;;;;;;42.97;28.83;;;;;;;21.32;75.61;100772.84;5105479;28;20027;-75
2022/08/16 06:42:59;;;;;;;41.67;27.03;;;;;;;21.79;73.13;100777.31;5109245;28;20039;-76
2022/08/16 06:45:25;;;;;;;40.07;27.37;;;;;;;22.09;72.66;100774.63;5108534;28;20115;-77
2022/08/16 06:47:50;;;;;;;45.63;26.67;;;;;;;22.63;71.16;100766.69;5110539;28;20398;-76
2022/08/16 06:50:17;;;;;;;37.80;27.20;;;;;;;22.98;68.83;100781.50;5107662;28;20027;-78
2022/08/16 06:52:44;;;;;;;35.42;25.92;;;;;;;23.08;68.62;100772.25;5076824;28;20042;-77
2022/08/16 06:55:11;;;;;;;37.38;24.85;;;;;;;23.27;68.38;100770.59;5107621;28;20046;-78
2022/08/16 06:57:37;;;;;;;32.22;24.58;;;;;;;23.57;66.99;100774.16;5091427;28;20030;-78
2022/08/16 07:00:13;;;;;;;32.75;25.38;;;;;;;23.65;66.62;100784.78;5109691;28;20024;-77
2022/08/16 07:02:43;;;;;;;33.70;23.50;;;;;;;23.50;66.91;100781.16;5090712;28;20458;-78
2022/08/16 07:05:11;;;;;;;32.22;24.10;;;;;;;23.44;67.13;100797.13;5089896;28;20036;-77
2022/08/16 07:07:37;;;;;;;35.00;24.50;;;;;;;23.73;65.64;100783.31;5090195;28;20047;-77
2022/08/16 07:10:05;;;;;;;35.78;23.65;;;;;;;23.98;65.74;100797.25;5071489;28;20036;-77
2022/08/16 07:12:30;;;;;;;33.45;23.85;;;;;;;23.80;66.41;100795.06;5082290;28;20027;-78
2022/08/16 07:14:56;;;;;;;31.40;21.73;;;;;;;24.06;65.48;100799.47;5109867;28;20054;-77
2022/08/16 07:17:22;;;;;;;31.92;22.80;;;;;;;24.01;65.57;100797.53;5090076;28;20134;-78
2022/08/16 07:19:48;;;;;;;30.58;22.80;;;;;;;24.18;64.45;100797.19;5109766;28;20051;-77
2022/08/16 07:22:15;;;;;;;31.52;22.83;;;;;;;24.21;64.44;100797.44;5110069;28;20024;-77
2022/08/16 07:24:43;;;;;;;28.70;22.55;;;;;;;24.20;64.19;100803.31;5091767;28;20085;-77
2022/08/16 07:27:08;;;;;;;30.27;22.10;;;;;;;24.38;64.46;100805.47;5109068;28;20113;-78
2022/08/16 07:29:33;;;;;;;26.67;22.27;;;;;;;24.19;64.46;100813.69;5091714;28;20496;-77
2022/08/16 07:31:59;;;;;;;32.13;22.27;;;;;;;24.11;64.51;100816.25;5109061;28;20032;-78
2022/08/16 07:34:25;;;;;;;26.02;21.48;;;;;;;24.17;64.60;100829.94;5091693;28;20075;-77
2022/08/16 07:36:50;;;;;;;33.80;24.43;;;;;;;24.21;64.38;100831.03;5090310;28;20023;-77
2022/08/16 07:39:16;;;;;;;27.43;21.13;;;;;;;24.31;64.83;100832.94;5106073;28;20028;-79
2022/08/16 07:41:43;;;;;;;29.40;23.33;;;;;;;24.23;65.06;100825.16;5088496;28;20464;-78
2022/08/16 07:44:08;;;;;;;33.78;23.63;;;;;;;24.42;64.37;100832.59;5107844;28;20486;-78
2022/08/16 07:46:34;;;;;;;38.83;24.55;;;;;;;24.28;64.60;100837.16;5107800;28;20036;-78
2022/08/16 07:49:00;;;;;;;35.23;24.47;;;;;;;24.38;64.92;100841.88;5090245;28;20046;-77
2022/08/16 07:51:25;;;;;;;39.35;23.42;;;;;;;24.36;64.67;100833.75;5088596;28;20110;-78
2022/08/16 07:53:50;;;;;;;32.90;22.23;;;;;;;24.23;64.97;100830.75;5089384;28;20445;-77
2022/08/16 07:56:19;;;;;;;35.83;23.67;;;;;;;24.05;65.42;100836.97;5107564;28;20119;-77
2022/08/16 07:58:45;;;;;;;30.15;22.27;;;;;;;24.08;66.09;100825.22;5102467;28;20092;-77
2022/08/16 08:01:12;;;;;;;34.20;22.33;;;;;;;24.04;65.65;100840.91;5098088;28;20520;-78
2022/08/16 08:03:39;;;;;;;28.13;23.40;;;;;;;23.85;65.78;100842.63;5110558;28;20043;-77
2022/08/16 08:06:05;;;;;;;30.20;22.30;;;;;;;24.02;65.65;100835.59;5103315;28;20230;-78
2022/08/16 08:08:31;;;;;;;38.40;24.03;;;;;;;23.70;66.77;100839.88;5087879;28;20020;-76
2022/08/16 08:10:57;;;;;;;34.33;24.58;;;;;;;23.81;66.60;100831.19;5107061;28;20020;-77
2022/08/16 08:13:22;;;;;;;32.03;24.27;;;;;;;23.71;66.91;100827.56;5106244;28;20031;-76
2022/08/16 08:15:48;;;;;;;35.80;24.13;;;;;;;23.73;67.32;100830.88;5087523;28;20020;-76
2022/08/16 08:18:14;;;;;;;33.25;24.83;;;;;;;23.69;66.86;100836.22;5108289;28;20534;-77
2022/08/16 08:20:43;;;;;;;33.90;24.50;;;;;;;23.69;66.88;100832.59;5104972;28;20126;-76
2022/08/16 08:23:09;;;;;;;36.63;25.30;;;;;;;23.92;66.74;100832.84;5105777;28;20034;-77
2022/08/16 08:25:35;;;;;;;36.05;23.85;;;;;;;23.96;66.29;100828.31;5089234;28;20035;-77
2022/08/16 08:28:01;;;;;;;33.17;23.83;;;;;;;23.86;66.03;100835.91;5107049;28;20032;-76
2022/08/16 08:30:26;;;;;;;37.22;23.17;;;;;;;23.92;66.57;100846.00;5107401;28;20077;-77
2022/08/16 08:32:54;;;;;;;33.40;24.40;;;;;;;23.73;66.53;100856.06;5089888;28;20471;-76
2022/08/16 08:35:19;;;;;;;41.78;24.73;;;;;;;23.67;66.98;100851.59;5106737;28;20030;-78
2022/08/16 08:37:45;;;;;;;36.83;24.25;;;;;;;23.78;66.96;100853.25;5108424;28;20035;-77
2022/08/16 08:40:11;;;;;;;30.53;22.50;;;;;;;24.00;65.79;100859.41;5090345;28;20122;-77
2022/08/16 08:42:37;;;;;;;;;;;;;;;24.01;65.86;100866.69;5108933;28;20072;-77
2022/08/16 08:45:04;;;;;;;34.95;23.92;;;;;;;24.22;65.75;100859.88;5109396;28;19919;-77
2022/08/16 08:47:30;;;;;;;32.80;21.95;;;;;;;24.26;65.71;100866.56;5112519;28;20123;-76
2022/08/16 08:49:55;;;;;;;28.38;22.92;;;;;;;24.35;64.39;100873.25;5110515;28;20031;-74
2022/08/16 08:52:21;;;;;;;29.80;22.63;;;;;;;24.52;64.46;100877.38;5093030;28;20097;-76
2022/08/16 08:54:47;;;;;;;29.17;22.65;;;;;;;24.36;64.99;100883.31;5092253;28;20058;-75
2022/08/16 08:57:12;;;;;;;28.33;21.63;;;;;;;24.69;63.64;100883.47;5110959;28;20031;-75
2022/08/16 08:59:38;;;;;;;34.27;22.67;;;;;;;24.69;63.23;100885.41;5091255;28;20454;-77
2022/08/16 09:02:14;;;;;;;27.80;22.00;;;;;;;24.80;63.29;100879.47;5091196;28;20028;-77
2022/08/16 09:04:40;;;;;;;29.33;21.52;;;;;;;25.09;62.51;100887.97;5089967;28;20070;-77
2022/08/16 09:07:05;;;;;;;30.77;21.60;;;;;;;25.25;61.47;100896.03;5090278;28;20490;-78
2022/08/16 09:09:31;;;;;;;31.83;21.23;;;;;;;25.41;61.49;100894.78;5071148;28;20755;-76
2022/08/16 09:11:56;;;;;;;25.70;20.33;;;;;;;25.61;60.99;100897.38;5072430;28;20032;-77
2022/08/16 09:14:22;;;;;;;28.70;23.13;;;;;;;25.38;61.53;100897.31;5089137;28;20039;-77
2022/08/16 09:16:48;;;;;;;28.48;21.85;;;;;;;25.60;60.73;100894.88;5072993;28;20473;-77
2022/08/16 09:19:13;;;;;;;25.88;21.08;;;;;;;25.58;60.16;100897.13;5090306;28;20551;-79
2022/08/16 09:21:39;;;;;;;37.03;21.27;;;;;;;25.47;60.50;100892.75;5090590;28;20429;-78
2022/08/16 09:24:05;;;;;;;31.50;22.15;;;;;;;25.61;60.27;100899.34;5088715;28;20062;-78
2022/08/16 09:26:30;;;;;;;33.05;21.27;;;;;;;25.55;59.95;100900.53;5091767;28;20034;-77
2022/08/16 09:28:56;;;;;;;25.23;19.23;;;;;;;25.71;60.03;100893.66;5087526;28;20043;-77
2022/08/16 09:31:23;;;;;;;27.23;21.23;;;;;;;25.76;59.80;100902.84;5090471;28;20107;-77
2022/08/16 09:33:49;;;;;;;27.67;20.70;;;;;;;25.53;60.74;100898.03;5071023;28;20039;-77
2022/08/16 09:36:14;;;;;;;23.75;21.02;;;;;;;25.59;60.51;100898.78;5072635;28;20060;-77
2022/08/16 09:38:39;;;;;;;27.50;19.60;;;;;;;25.82;60.42;100903.66;5071721;28;20043;-78
2022/08/16 09:41:09;;;;;;;24.43;20.93;;;;;;;25.81;59.47;100897.19;5088011;28;20426;-78
2022/08/16 09:43:35;;;;;;;28.73;22.02;;;;;;;26.08;58.74;100903.09;5071123;28;20028;-76
2022/08/16 09:46:02;;;;;;;28.55;21.52;;;;;;;26.16;58.71;100907.22;5084335;28;20035;-76
2022/08/16 09:48:31;;;;;;;28.55;22.67;;;;;;;26.12;58.51;100904.19;5090436;28;20028;-76
2022/08/16 09:50:57;;;;;;;27.05;20.38;;;;;;;26.47;58.38;100906.53;5087904;28;20414;-75
2022/08/16 09:53:22;;;;;;;26.23;20.80;;;;;;;26.71;56.87;100910.19;5071633;28;20370;-76
2022/08/16 09:55:52;;;;;;;28.73;22.07;;;;;;;26.79;56.24;100912.31;5071555;28;20036;-76
2022/08/16 09:58:21;;;;;;;25.00;21.48;;;;;;;26.64;56.68;100906.94;5086021;28;20577;-75
2022/08/16 10:00:48;;;;;;;25.88;20.63;;;;;;;26.79;56.33;100908.69;5085387;28;20024;-76
2022/08/16 10:03:13;;;;;;;;;;;;;;;27.38;55.61;100917.38;5082532;28;20043;-75
2022/08/16 10:05:38;;;;;;;23.87;19.93;;;;;;;27.65;54.26;100912.69;5084249;28;19920;-76
2022/08/16 10:08:04;;;;;;;28.37;19.67;;;;;;;27.57;54.42;100904.09;5082301;28;20099;-75
2022/08/16 10:10:30;;;;;;;27.95;19.45;;;;;;;27.65;53.54;100911.84;5067249;28;20031;-75
2022/08/16 10:13:13;;;;;;;28.15;17.40;;;;;;;27.83;54.57;100913.78;5086640;28;20531;-76
2022/08/16 10:15:46;;;;;;;32.83;20.35;;;;;;;27.81;52.95;100914.13;5083151;28;20099;-75
2022/08/16 10:18:13;;;;;;;24.77;18.08;;;;;;;27.82;53.22;100918.59;5086247;28;20042;-76
2022/08/16 10:20:44;;;;;;;32.03;21.58;;;;;;;27.59;53.78;100918.72;5090042;28;20477;-75
2022/08/16 10:23:14;;;;;;;24.80;16.80;;;;;;;27.75;55.04;100918.13;5088597;28;20024;-76
2022/08/16 10:25:43;;;;;;;30.65;18.15;;;;;;;27.77;53.86;100920.63;5082805;28;20460;-75
2022/08/16 10:28:09;;;;;;;31.85;18.48;;;;;;;27.42;54.99;100912.81;5077916;28;20090;-76
2022/08/16 10:30:36;;;;;;;28.92;17.83;;;;;;;27.67;53.40;100920.81;5060362;28;20029;-74
2022/08/16 10:33:02;;;;;;;30.45;19.67;;;;;;;27.52;54.23;100921.09;5088831;28;20047;-74
2022/08/16 10:35:27;;;;;;;27.23;19.38;;;;;;;27.31;54.06;100929.00;5094252;28;20035;-74
2022/08/16 10:37:53;;;;;;;23.93;17.17;;;;;;;27.17;55.54;100928.13;5090441;28;20107;-75
2022/08/16 10:40:19;;;;;;;29.70;18.43;;;;;;;27.29;55.16;100924.84;5071022;28;20174;-75
2022/08/16 10:42:44;;;;;;;;;;;;;;;27.45;54.08;100938.38;5090780;28;20348;-75
2022/08/16 10:45:10;;;;;;;25.50;17.50;;;;;;;27.76;54.08;100935.84;5089895;28;20007;-75
2022/08/16 10:47:35;;;;;;;24.27;17.42;;;;;;;28.14;52.54;100929.81;5090128;28;20344;-74
2022/08/16 10:50:02;;;;;;;22.05;16.40;;;;;;;28.42;51.00;100933.50;5089970;28;20051;-75
2022/08/16 10:52:27;;;;;;;;;;;;;;;28.43;49.52;100938.84;5072282;28;20059;-75
2022/08/16 10:54:52;;;;;;;25.60;15.07;;;;;;;28.81;49.21;100934.63;5071623;28;20398;-74
2022/08/16 10:57:18;;;;;;;25.17;16.47;;;;;;;28.37;49.11;100936.41;5070807;28;20027;-74
2022/08/16 10:59:43;;;;;;;20.73;14.97;;;;;;;28.52;49.20;100941.75;5071632;28;20035;-74
2022/08/16 11:02:10;;;;;;;23.93;14.57;;;;;;;28.58;48.60;100940.50;5089741;28;20031;-74
2022/08/16 11:04:36;;;;;;;21.45;16.40;;;;;;;28.58;47.94;100940.50;5076455;28;20035;-74
2022/08/16 11:07:03;;;;;;;18.27;13.77;;;;;;;28.71;48.82;100936.84;5071147;28;20031;-74
2022/08/16 11:09:29;;;;;;;23.88;16.33;;;;;;;28.51;48.11;100945.72;5070968;28;20036;-74